ヘルシンキ/ヴァンター の空港の天気 - METARとTAF

ヘルシンキ・ヴァンター国際空港 ( EFHK / HEL ) - フィンランド ヴァンター
飛行場実況気象(Metar)
観測時間08/17 14:20 EEST (08/17 11:20 UTC)
風向・風速南 6m/s
視程10km以上
天気現象
少しの雲 雲底高度 760m
気温21℃
湿度64%
気圧1015hPa
METAREFHK 171120Z 19012KT 150V220 9999 FEW025 21/14 Q1015 NOSIG
過去の天気等 Google飛行場航空写真 Wunderground天気予報

過去48時間のMETAR

飛行場予報(TAF)
発表時間: 8/17 14:25 EEST (8/17 11:25 UTC)
予報対象時間: 17日15時 EEST ~ 18日15時 EEST
風向・風速南 6m/s
視程10km以上
少しの雲 雲底高度 760m
TAF EFHK 171125Z 1712/1812 17012KT 9999 FEW025